sensor_id;sensor_type;location;lat;lon;timestamp;pressure;altitude;pressure_sealevel;temperature;humidity
7337;BME280;54510;42.016;23.098;2023-03-25T00:00:13;-21465.22;;;12.03;63.47
7337;BME280;54510;42.016;23.098;2023-03-25T00:02:45;-21456.50;;;11.71;64.20
7337;BME280;54510;42.016;23.098;2023-03-25T00:05:12;-21460.38;;;11.85;63.72
7337;BME280;54510;42.016;23.098;2023-03-25T00:07:41;-21461.50;;;11.89;63.58
7337;BME280;54510;42.016;23.098;2023-03-25T00:10:07;-21460.38;;;11.85;63.88
7337;BME280;54510;42.016;23.098;2023-03-25T00:12:33;-21457.88;;;11.76;64.34
7337;BME280;54510;42.016;23.098;2023-03-25T00:14:58;-21450.81;;;11.50;65.36
7337;BME280;54510;42.016;23.098;2023-03-25T00:17:24;-21450.66;;;11.49;65.31
7337;BME280;54510;42.016;23.098;2023-03-25T00:19:55;-21451.22;;;11.52;65.04
7337;BME280;54510;42.016;23.098;2023-03-25T00:22:20;-21447.34;;;11.37;65.62
7337;BME280;54510;42.016;23.098;2023-03-25T00:24:46;-21447.06;;;11.36;65.90
7337;BME280;54510;42.016;23.098;2023-03-25T00:27:12;-21447.47;;;11.38;65.78
7337;BME280;54510;42.016;23.098;2023-03-25T00:29:38;-21442.63;;;11.20;66.78
7337;BME280;54510;42.016;23.098;2023-03-25T00:32:04;-21442.22;;;11.19;66.48
7337;BME280;54510;42.016;23.098;2023-03-25T00:34:29;-21443.47;;;11.23;66.85
7337;BME280;54510;42.016;23.098;2023-03-25T00:36:55;-21444.56;;;11.27;66.76
7337;BME280;54510;42.016;23.098;2023-03-25T00:39:20;-21444.16;;;11.26;67.32
7337;BME280;54510;42.016;23.098;2023-03-25T00:41:45;-21441.25;;;11.15;67.63
7337;BME280;54510;42.016;23.098;2023-03-25T00:44:12;-21440.13;;;11.11;67.45
7337;BME280;54510;42.016;23.098;2023-03-25T00:46:38;-21443.75;;;11.24;66.78
7337;BME280;54510;42.016;23.098;2023-03-25T00:49:04;-21445.97;;;11.32;66.39
7337;BME280;54510;42.016;23.098;2023-03-25T00:51:29;-21441.50;;;11.16;66.74
7337;BME280;54510;42.016;23.098;2023-03-25T00:53:57;-21440.41;;;11.12;66.89
7337;BME280;54510;42.016;23.098;2023-03-25T00:56:27;-21439.44;;;11.08;67.25
7337;BME280;54510;42.016;23.098;2023-03-25T00:58:52;-21438.19;;;11.04;67.54
7337;BME280;54510;42.016;23.098;2023-03-25T01:01:19;-21442.47;;;11.20;67.56
7337;BME280;54510;42.016;23.098;2023-03-25T01:03:47;-21440.13;;;11.11;67.96
7337;BME280;54510;42.016;23.098;2023-03-25T01:06:14;-21443.47;;;11.23;67.97
7337;BME280;54510;42.016;23.098;2023-03-25T01:08:40;-21445.13;;;11.29;68.10
7337;BME280;54510;42.016;23.098;2023-03-25T01:11:06;-21445.25;;;11.30;68.40
7337;BME280;54510;42.016;23.098;2023-03-25T01:13:33;-21442.91;;;11.21;68.45
7337;BME280;54510;42.016;23.098;2023-03-25T01:15:58;-21443.75;;;11.24;67.98
7337;BME280;54510;42.016;23.098;2023-03-25T01:18:23;-21436.66;;;10.98;68.76
7337;BME280;54510;42.016;23.098;2023-03-25T01:20:48;-21442.06;;;11.18;68.61
7337;BME280;54510;42.016;23.098;2023-03-25T01:23:14;-21443.59;;;11.24;68.42
7337;BME280;54510;42.016;23.098;2023-03-25T01:25:39;-21442.06;;;11.18;68.44
7337;BME280;54510;42.016;23.098;2023-03-25T01:28:04;-21436.25;;;10.97;68.78
7337;BME280;54510;42.016;23.098;2023-03-25T01:30:30;-21439.56;;;11.09;68.47
7337;BME280;54510;42.016;23.098;2023-03-25T01:32:55;-21438.06;;;11.03;68.91
7337;BME280;54510;42.016;23.098;2023-03-25T01:35:21;-21439.72;;;11.09;68.58
7337;BME280;54510;42.016;23.098;2023-03-25T01:37:46;-21439.72;;;11.09;68.63
7337;BME280;54510;42.016;23.098;2023-03-25T01:40:21;-21444.72;;;11.28;68.21
7337;BME280;54510;42.016;23.098;2023-03-25T01:42:48;-21445.97;;;11.32;68.10
7337;BME280;54510;42.016;23.098;2023-03-25T01:45:18;-21446.09;;;11.33;67.85
7337;BME280;54510;42.016;23.098;2023-03-25T01:47:44;-21439.03;;;11.07;68.94
7337;BME280;54510;42.016;23.098;2023-03-25T01:50:11;-21440.13;;;11.11;69.10
7337;BME280;54510;42.016;23.098;2023-03-25T01:52:39;-21440.97;;;11.14;69.00
7337;BME280;54510;42.016;23.098;2023-03-25T01:55:06;-21439.56;;;11.09;69.49
7337;BME280;54510;42.016;23.098;2023-03-25T01:57:31;-21438.19;;;11.04;70.06
7337;BME280;54510;42.016;23.098;2023-03-25T01:59:57;-21440.69;;;11.13;69.61
7337;BME280;54510;42.016;23.098;2023-03-25T02:02:22;-21440.00;;;11.11;69.51
7337;BME280;54510;42.016;23.098;2023-03-25T02:04:59;-21441.50;;;11.16;69.19
7337;BME280;54510;42.016;23.098;2023-03-25T02:07:31;-21430.97;;;10.78;70.35
7337;BME280;54510;42.016;23.098;2023-03-25T02:10:03;-21435.69;;;10.95;69.82
7337;BME280;54510;42.016;23.098;2023-03-25T02:12:28;-21436.66;;;10.98;69.37
7337;BME280;54510;42.016;23.098;2023-03-25T02:14:54;-21435.97;;;10.96;69.28
7337;BME280;54510;42.016;23.098;2023-03-25T02:42:48;-21425.16;;;10.56;70.43
7337;BME280;54510;42.016;23.098;2023-03-25T02:44:58;-21420.56;;;10.40;71.08
7337;BME280;54510;42.016;23.098;2023-03-25T02:47:24;-21417.50;;;10.28;71.28
7337;BME280;54510;42.016;23.098;2023-03-25T02:49:58;-21418.06;;;10.30;71.12
7337;BME280;54510;42.016;23.098;2023-03-25T02:52:30;-21420.97;;;10.41;70.53
7337;BME280;54510;42.016;23.098;2023-03-25T02:54:58;-21412.50;;;10.10;71.47
7337;BME280;54510;42.016;23.098;2023-03-25T02:57:28;-21412.09;;;10.09;71.72
7337;BME280;54510;42.016;23.098;2023-03-25T02:59:56;-21412.91;;;10.12;71.19
7337;BME280;54510;42.016;23.098;2023-03-25T03:02:23;-21413.19;;;10.13;70.96
7337;BME280;54510;42.016;23.098;2023-03-25T03:04:53;-21414.59;;;10.18;70.99
7337;BME280;54510;42.016;23.098;2023-03-25T03:07:24;-21417.94;;;10.30;70.82
7337;BME280;54510;42.016;23.098;2023-03-25T03:12:39;-21422.50;;;10.47;69.83
7337;BME280;54510;42.016;23.098;2023-03-25T03:18:02;-21421.25;;;10.42;70.11
7337;BME280;54510;42.016;23.098;2023-03-25T03:20:37;-21423.63;;;10.51;69.86
7337;BME280;54510;42.016;23.098;2023-03-25T03:23:49;-21412.38;;;10.10;71.73
7337;BME280;54510;42.016;23.098;2023-03-25T03:26:07;-21413.88;;;10.15;71.81
7337;BME280;54510;42.016;23.098;2023-03-25T03:28:39;-21412.63;;;10.11;72.48
7337;BME280;54510;42.016;23.098;2023-03-25T03:31:10;-21415.97;;;10.23;72.02
7337;BME280;54510;42.016;23.098;2023-03-25T03:33:56;-21417.50;;;10.28;71.56
7337;BME280;54510;42.016;23.098;2023-03-25T03:36:27;-21412.38;;;10.10;72.14
7337;BME280;54510;42.016;23.098;2023-03-25T03:39:00;-21408.88;;;9.97;72.69
7337;BME280;54510;42.016;23.098;2023-03-25T03:41:28;-21403.59;;;9.78;73.16
7337;BME280;54510;42.016;23.098;2023-03-25T03:43:56;-21397.34;;;9.55;74.02
7337;BME280;54510;42.016;23.098;2023-03-25T03:46:27;-21394.56;;;9.45;74.32
7337;BME280;54510;42.016;23.098;2023-03-25T03:48:55;-21395.97;;;9.50;74.59
7337;BME280;54510;42.016;23.098;2023-03-25T03:51:29;-21393.88;;;9.42;74.45
7337;BME280;54510;42.016;23.098;2023-03-25T03:53:59;-21393.03;;;9.39;74.46
7337;BME280;54510;42.016;23.098;2023-03-25T03:56:27;-21390.69;;;9.31;75.39
7337;BME280;54510;42.016;23.098;2023-03-25T03:58:56;-21393.47;;;9.41;75.62
7337;BME280;54510;42.016;23.098;2023-03-25T04:01:31;-21398.19;;;9.58;74.89
7337;BME280;54510;42.016;23.098;2023-03-25T04:04:00;-21390.13;;;9.29;74.93
7337;BME280;54510;42.016;23.098;2023-03-25T04:06:29;-21391.38;;;9.33;76.04
7337;BME280;54510;42.016;23.098;2023-03-25T04:11:55;-21391.38;;;9.33;75.69
7337;BME280;54510;42.016;23.098;2023-03-25T04:14:21;-21395.13;;;9.47;75.15
7337;BME280;54510;42.016;23.098;2023-03-25T04:16:46;-21395.13;;;9.47;75.27
7337;BME280;54510;42.016;23.098;2023-03-25T04:19:11;-21389.56;;;9.27;75.96
7337;BME280;54510;42.016;23.098;2023-03-25T04:21:43;-21392.78;;;9.38;76.08
7337;BME280;54510;42.016;23.098;2023-03-25T04:24:09;-21394.72;;;9.45;75.84
7337;BME280;54510;42.016;23.098;2023-03-25T04:26:35;-21392.50;;;9.37;75.14
7337;BME280;54510;42.016;23.098;2023-03-25T04:29:05;-21392.34;;;9.37;75.56
7337;BME280;54510;42.016;23.098;2023-03-25T04:31:31;-21393.19;;;9.40;75.64
7337;BME280;54510;42.016;23.098;2023-03-25T04:33:57;-21392.06;;;9.36;75.53
7337;BME280;54510;42.016;23.098;2023-03-25T04:36:23;-21394.44;;;9.44;75.28
7337;BME280;54510;42.016;23.098;2023-03-25T04:38:53;-21392.91;;;9.39;75.11
7337;BME280;54510;42.016;23.098;2023-03-25T04:41:19;-21387.06;;;9.18;75.80
7337;BME280;54510;42.016;23.098;2023-03-25T04:43:45;-21387.75;;;9.20;76.35
7337;BME280;54510;42.016;23.098;2023-03-25T04:46:11;-21388.75;;;9.24;76.25
7337;BME280;54510;42.016;23.098;2023-03-25T04:48:37;-21389.16;;;9.25;76.16
7337;BME280;54510;42.016;23.098;2023-03-25T04:51:05;-21394.28;;;9.44;75.47
7337;BME280;54510;42.016;23.098;2023-03-25T04:53:31;-21394.28;;;9.44;74.80
7337;BME280;54510;42.016;23.098;2023-03-25T04:55:56;-21392.91;;;9.39;74.23
7337;BME280;54510;42.016;23.098;2023-03-25T04:58:22;-21398.47;;;9.59;73.67
7337;BME280;54510;42.016;23.098;2023-03-25T05:00:49;-21400.97;;;9.68;72.75
7337;BME280;54510;42.016;23.098;2023-03-25T05:03:15;-21403.88;;;9.79;72.57
7337;BME280;54510;42.016;23.098;2023-03-25T05:05:41;-21399.56;;;9.63;72.22
7337;BME280;54510;42.016;23.098;2023-03-25T05:08:06;-21397.78;;;9.57;72.93
7337;BME280;54510;42.016;23.098;2023-03-25T05:10:32;-21396.94;;;9.54;72.85
7337;BME280;54510;42.016;23.098;2023-03-25T05:12:58;-21400.84;;;9.68;73.36
7337;BME280;54510;42.016;23.098;2023-03-25T05:15:24;-21399.03;;;9.61;72.78
7337;BME280;54510;42.016;23.098;2023-03-25T05:17:50;-21400.97;;;9.68;72.71
7337;BME280;54510;42.016;23.098;2023-03-25T05:20:15;-21405.41;;;9.84;72.28
7337;BME280;54510;42.016;23.098;2023-03-25T05:22:41;-21407.63;;;9.93;71.18
7337;BME280;54510;42.016;23.098;2023-03-25T05:25:08;-21411.66;;;10.07;70.93
7337;BME280;54510;42.016;23.098;2023-03-25T05:27:34;-21414.72;;;10.18;70.61
7337;BME280;54510;42.016;23.098;2023-03-25T05:30:00;-21416.25;;;10.24;71.22
7337;BME280;54510;42.016;23.098;2023-03-25T05:32:25;-21419.03;;;10.34;70.75
7337;BME280;54510;42.016;23.098;2023-03-25T05:34:54;-21422.22;;;10.46;70.40
7337;BME280;54510;42.016;23.098;2023-03-25T05:37:19;-21423.88;;;10.52;70.27
7337;BME280;54510;42.016;23.098;2023-03-25T05:39:44;-21420.00;;;10.38;70.44
7337;BME280;54510;42.016;23.098;2023-03-25T05:42:10;-21417.94;;;10.30;70.91
7337;BME280;54510;42.016;23.098;2023-03-25T05:44:35;-21417.38;;;10.28;71.44
7337;BME280;54510;42.016;23.098;2023-03-25T05:47:03;-21423.47;;;10.50;70.82
7337;BME280;54510;42.016;23.098;2023-03-25T05:49:28;-21427.34;;;10.64;71.01
7337;BME280;54510;42.016;23.098;2023-03-25T05:51:53;-21415.69;;;10.22;71.96
7337;BME280;54510;42.016;23.098;2023-03-25T05:54:20;-21423.47;;;10.50;71.98
7337;BME280;54510;42.016;23.098;2023-03-25T05:56:48;-21433.06;;;10.85;70.81
7337;BME280;54510;42.016;23.098;2023-03-25T05:59:13;-21435.97;;;10.96;69.88
7337;BME280;54510;42.016;23.098;2023-03-25T06:01:40;-21432.78;;;10.84;70.25
7337;BME280;54510;42.016;23.098;2023-03-25T06:04:09;-21432.91;;;10.85;70.61
7337;BME280;54510;42.016;23.098;2023-03-25T06:06:37;-21441.25;;;11.15;69.59
7337;BME280;54510;42.016;23.098;2023-03-25T06:09:02;-21445.25;;;11.30;69.10
7337;BME280;54510;42.016;23.098;2023-03-25T06:11:28;-21446.50;;;11.34;68.52
7337;BME280;54510;42.016;23.098;2023-03-25T06:13:53;-21442.47;;;11.20;69.18
7337;BME280;54510;42.016;23.098;2023-03-25T06:16:20;-21447.47;;;11.38;68.87
7337;BME280;54510;42.016;23.098;2023-03-25T06:18:46;-21453.44;;;11.60;67.91
7337;BME280;54510;42.016;23.098;2023-03-25T06:21:15;-21456.06;;;11.69;68.34
7337;BME280;54510;42.016;23.098;2023-03-25T06:23:41;-21461.06;;;11.87;67.79
7337;BME280;54510;42.016;23.098;2023-03-25T06:26:06;-21466.47;;;12.07;67.11
7337;BME280;54510;42.016;23.098;2023-03-25T06:28:31;-21467.16;;;12.10;66.84
7337;BME280;54510;42.016;23.098;2023-03-25T06:30:57;-21462.59;;;11.93;67.28
7337;BME280;54510;42.016;23.098;2023-03-25T06:33:23;-21463.72;;;11.97;67.95
7337;BME280;54510;42.016;23.098;2023-03-25T06:35:48;-21470.50;;;12.22;67.28
7337;BME280;54510;42.016;23.098;2023-03-25T06:38:19;-21477.16;;;12.46;66.35
7337;BME280;54510;42.016;23.098;2023-03-25T06:40:45;-21478.13;;;12.50;66.20
7337;BME280;54510;42.016;23.098;2023-03-25T06:43:11;-21477.97;;;12.49;66.10
7337;BME280;54510;42.016;23.098;2023-03-25T06:45:36;-21480.75;;;12.59;65.79
7337;BME280;54510;42.016;23.098;2023-03-25T06:48:02;-21489.75;;;12.92;65.38
7337;BME280;54510;42.016;23.098;2023-03-25T06:50:27;-21488.78;;;12.89;64.92
7337;BME280;54510;42.016;23.098;2023-03-25T06:52:52;-21488.22;;;12.87;65.09
7337;BME280;54510;42.016;23.098;2023-03-25T06:55:18;-21496.25;;;13.16;64.46
7337;BME280;54510;42.016;23.098;2023-03-25T06:57:43;-21500.00;;;13.30;63.79
7337;BME280;54510;42.016;23.098;2023-03-25T07:00:09;-21501.38;;;13.35;63.96
7337;BME280;54510;42.016;23.098;2023-03-25T07:02:36;-21502.34;;;13.38;63.56
7337;BME280;54510;42.016;23.098;2023-03-25T07:05:01;-21493.47;;;13.06;64.26
7337;BME280;54510;42.016;23.098;2023-03-25T07:07:27;-21495.97;;;13.15;64.36
7337;BME280;54510;42.016;23.098;2023-03-25T07:09:52;-21507.31;;;13.57;63.21
7337;BME280;54510;42.016;23.098;2023-03-25T07:12:19;-21510.78;;;13.69;62.70
7337;BME280;54510;42.016;23.098;2023-03-25T07:14:49;-21511.19;;;13.71;62.52
7337;BME280;54510;42.016;23.098;2023-03-25T07:17:15;-21510.22;;;13.67;62.45
7337;BME280;54510;42.016;23.098;2023-03-25T07:19:40;-21512.31;;;13.75;62.48
7337;BME280;54510;42.016;23.098;2023-03-25T07:22:05;-21518.09;;;13.96;62.36
7337;BME280;54510;42.016;23.098;2023-03-25T07:24:30;-21511.59;;;13.72;62.51
7337;BME280;54510;42.016;23.098;2023-03-25T07:26:56;-21517.41;;;13.94;62.59
7337;BME280;54510;42.016;23.098;2023-03-25T07:29:21;-21519.34;;;14.01;62.08
7337;BME280;54510;42.016;23.098;2023-03-25T07:31:47;-21523.34;;;14.15;61.70
7337;BME280;54510;42.016;23.098;2023-03-25T07:34:12;-21527.91;;;14.32;61.55
7337;BME280;54510;42.016;23.098;2023-03-25T07:36:37;-21531.66;;;14.46;61.07
7337;BME280;54510;42.016;23.098;2023-03-25T07:39:03;-21531.25;;;14.44;61.16
7337;BME280;54510;42.016;23.098;2023-03-25T07:41:28;-21533.44;;;14.52;61.33
7337;BME280;54510;42.016;23.098;2023-03-25T07:43:53;-21540.78;;;14.79;61.02
7337;BME280;54510;42.016;23.098;2023-03-25T07:46:18;-21547.13;;;15.02;60.01
7337;BME280;54510;42.016;23.098;2023-03-25T07:48:44;-21542.69;;;14.86;60.30
7337;BME280;54510;42.016;23.098;2023-03-25T07:51:09;-21540.91;;;14.80;60.67
7337;BME280;54510;42.016;23.098;2023-03-25T07:53:35;-21548.91;;;15.09;60.34
7337;BME280;54510;42.016;23.098;2023-03-25T07:56:03;-21551.94;;;15.20;59.84
7337;BME280;54510;42.016;23.098;2023-03-25T07:58:28;-21553.75;;;15.27;59.57
7337;BME280;54510;42.016;23.098;2023-03-25T08:00:55;-21554.16;;;15.28;59.67
7337;BME280;54510;42.016;23.098;2023-03-25T08:03:20;-21553.88;;;15.27;59.57
7337;BME280;54510;42.016;23.098;2023-03-25T08:05:46;-21555.25;;;15.32;59.22
7337;BME280;54510;42.016;23.098;2023-03-25T08:08:11;-21560.50;;;15.52;59.07
7337;BME280;54510;42.016;23.098;2023-03-25T08:10:37;-21560.78;;;15.53;58.41
7337;BME280;54510;42.016;23.098;2023-03-25T08:13:02;-21563.97;;;15.64;58.54
7337;BME280;54510;42.016;23.098;2023-03-25T08:15:27;-21565.22;;;15.69;58.44
7337;BME280;54510;42.016;23.098;2023-03-25T08:17:53;-21563.28;;;15.62;58.59
7337;BME280;54510;42.016;23.098;2023-03-25T08:20:18;-21565.75;;;15.71;58.30
7337;BME280;54510;42.016;23.098;2023-03-25T08:22:44;-21575.13;;;16.05;57.45
7337;BME280;54510;42.016;23.098;2023-03-25T08:25:09;-21579.81;;;16.23;56.73
7337;BME280;54510;42.016;23.098;2023-03-25T08:27:34;-21579.81;;;16.23;57.09
7337;BME280;54510;42.016;23.098;2023-03-25T08:29:59;-21585.34;;;16.43;56.48
7337;BME280;54510;42.016;23.098;2023-03-25T08:32:26;-21585.19;;;16.42;56.57
7337;BME280;54510;42.016;23.098;2023-03-25T08:34:51;-21588.63;;;16.55;56.87
7337;BME280;54510;42.016;23.098;2023-03-25T08:37:17;-21583.69;;;16.37;56.71
7337;BME280;54510;42.016;23.098;2023-03-25T08:39:42;-21587.25;;;16.50;57.05
7337;BME280;54510;42.016;23.098;2023-03-25T08:42:12;-21593.88;;;16.74;56.38
7337;BME280;54510;42.016;23.098;2023-03-25T08:44:37;-21593.31;;;16.72;55.95
7337;BME280;54510;42.016;23.098;2023-03-25T08:47:03;-21596.34;;;16.83;55.94
7337;BME280;54510;42.016;23.098;2023-03-25T08:49:28;-21594.97;;;16.78;56.30
7337;BME280;54510;42.016;23.098;2023-03-25T08:51:54;-21597.72;;;16.88;56.00
7337;BME280;54510;42.016;23.098;2023-03-25T08:54:21;-21604.06;;;17.12;55.26
7337;BME280;54510;42.016;23.098;2023-03-25T08:56:47;-21610.41;;;17.35;54.24
7337;BME280;54510;42.016;23.098;2023-03-25T08:59:12;-21613.69;;;17.47;53.06
7337;BME280;54510;42.016;23.098;2023-03-25T09:01:38;-21615.34;;;17.53;53.22
7337;BME280;54510;42.016;23.098;2023-03-25T09:04:04;-21609.72;;;17.32;54.33
7337;BME280;54510;42.016;23.098;2023-03-25T09:06:29;-21609.03;;;17.30;54.64
7337;BME280;54510;42.016;23.098;2023-03-25T09:08:54;-21612.59;;;17.43;54.51
7337;BME280;54510;42.016;23.098;2023-03-25T09:11:20;-21620.31;;;17.71;54.56
7337;BME280;54510;42.016;23.098;2023-03-25T09:13:45;-21625.69;;;17.91;53.65
7337;BME280;54510;42.016;23.098;2023-03-25T09:16:11;-21625.25;;;17.90;54.13
7337;BME280;54510;42.016;23.098;2023-03-25T09:18:36;-21632.00;;;18.14;53.46
7337;BME280;54510;42.016;23.098;2023-03-25T09:21:02;-21630.50;;;18.09;53.08
7337;BME280;54510;42.016;23.098;2023-03-25T09:23:27;-21630.91;;;18.10;52.99
7337;BME280;54510;42.016;23.098;2023-03-25T09:25:53;-21631.19;;;18.11;52.84
7337;BME280;54510;42.016;23.098;2023-03-25T09:28:18;-21632.97;;;18.18;52.39
7337;BME280;54510;42.016;23.098;2023-03-25T09:30:43;-21635.44;;;18.27;52.31
7337;BME280;54510;42.016;23.098;2023-03-25T09:33:09;-21638.03;;;18.37;52.22
7337;BME280;54510;42.016;23.098;2023-03-25T09:35:34;-21643.97;;;18.59;51.49
7337;BME280;54510;42.016;23.098;2023-03-25T09:37:59;-21648.91;;;18.77;51.81
7337;BME280;54510;42.016;23.098;2023-03-25T09:40:25;-21650.41;;;18.82;50.93
7337;BME280;54510;42.016;23.098;2023-03-25T09:42:59;-21649.59;;;18.79;50.65
7337;BME280;54510;42.016;23.098;2023-03-25T09:48:00;-21655.22;;;19.00;50.60
7337;BME280;54510;42.016;23.098;2023-03-25T09:50:27;-21660.31;;;19.19;50.26
7337;BME280;54510;42.016;23.098;2023-03-25T09:52:56;-21659.06;;;19.14;49.25
7337;BME280;54510;42.016;23.098;2023-03-25T09:55:25;-21661.94;;;19.25;48.64
7337;BME280;54510;42.016;23.098;2023-03-25T09:57:58;-21670.06;;;19.55;48.58
7337;BME280;54510;42.016;23.098;2023-03-25T10:00:25;-21668.13;;;19.48;48.71
7337;BME280;54510;42.016;23.098;2023-03-25T10:02:53;-21670.19;;;19.55;48.63
7337;BME280;54510;42.016;23.098;2023-03-25T10:05:24;-21681.03;;;19.95;47.83
7337;BME280;54510;42.016;23.098;2023-03-25T10:07:55;-21692.00;;;20.36;46.78
7337;BME280;54510;42.016;23.098;2023-03-25T10:10:35;-21693.94;;;20.43;46.33
7337;BME280;54510;42.016;23.098;2023-03-25T10:15:46;-21707.50;;;20.93;43.42
7337;BME280;54510;42.016;23.098;2023-03-25T10:23:40;-21719.53;;;21.38;41.30
7337;BME280;54510;42.016;23.098;2023-03-25T10:28:56;-21724.34;;;21.55;39.76
7337;BME280;54510;42.016;23.098;2023-03-25T10:31:25;-21729.94;;;21.76;39.11
7337;BME280;54510;42.016;23.098;2023-03-25T10:33:56;-21734.72;;;21.94;39.77
7337;BME280;54510;42.016;23.098;2023-03-25T10:36:26;-21733.91;;;21.91;38.58
7337;BME280;54510;42.016;23.098;2023-03-25T10:38:55;-21740.88;;;22.17;38.74
7337;BME280;54510;42.016;23.098;2023-03-25T10:41:29;-21734.72;;;21.94;37.66
7337;BME280;54510;42.016;23.098;2023-03-25T10:43:55;-21736.09;;;21.99;37.14
7337;BME280;54510;42.016;23.098;2023-03-25T10:46:30;-21744.31;;;22.29;36.44
7337;BME280;54510;42.016;23.098;2023-03-25T10:48:58;-21742.13;;;22.21;36.43
7337;BME280;54510;42.016;23.098;2023-03-25T10:51:41;-21737.34;;;22.03;36.09
7337;BME280;54510;42.016;23.098;2023-03-25T10:54:09;-21741.56;;;22.19;36.42
7337;BME280;54510;42.016;23.098;2023-03-25T10:56:39;-21751.69;;;22.57;34.28
7337;BME280;54510;42.016;23.098;2023-03-25T10:59:39;-21759.06;;;22.84;34.69
7337;BME280;54510;42.016;23.098;2023-03-25T11:01:58;-21766.44;;;23.11;35.57
7337;BME280;54510;42.016;23.098;2023-03-25T11:04:28;-21771.34;;;23.30;33.28
7337;BME280;54510;42.016;23.098;2023-03-25T11:06:56;-21772.16;;;23.33;33.54
7337;BME280;54510;42.016;23.098;2023-03-25T11:09:23;-21772.72;;;23.35;33.92
7337;BME280;54510;42.016;23.098;2023-03-25T11:11:49;-21777.63;;;23.53;32.47
7337;BME280;54510;42.016;23.098;2023-03-25T11:14:15;-21780.38;;;23.63;32.63
7337;BME280;54510;42.016;23.098;2023-03-25T11:17:41;-21788.13;;;23.92;33.21
7337;BME280;54510;42.016;23.098;2023-03-25T11:19:38;-21787.72;;;23.90;31.63
7337;BME280;54510;42.016;23.098;2023-03-25T11:22:08;-21786.50;;;23.86;30.59
7337;BME280;54510;42.016;23.098;2023-03-25T11:24:39;-21785.28;;;23.81;30.47
7337;BME280;54510;42.016;23.098;2023-03-25T11:27:06;-21783.50;;;23.75;30.23
7337;BME280;54510;42.016;23.098;2023-03-25T11:29:32;-21782.81;;;23.72;29.44
7337;BME280;54510;42.016;23.098;2023-03-25T11:34:30;-21794.94;;;24.17;28.82
7337;BME280;54510;42.016;23.098;2023-03-25T11:37:01;-21797.56;;;24.27;27.84
7337;BME280;54510;42.016;23.098;2023-03-25T11:39:30;-21803.00;;;24.47;28.06
7337;BME280;54510;42.016;23.098;2023-03-25T11:41:56;-21814.72;;;24.91;27.60
7337;BME280;54510;42.016;23.098;2023-03-25T11:44:29;-21819.06;;;25.07;27.53
7337;BME280;54510;42.016;23.098;2023-03-25T11:46:56;-21816.75;;;24.98;26.55
7337;BME280;54510;42.016;23.098;2023-03-25T11:49:22;-21815.41;;;24.93;27.05
7337;BME280;54510;42.016;23.098;2023-03-25T11:52:02;-21821.81;;;25.17;27.50
7337;BME280;54510;42.016;23.098;2023-03-25T11:54:29;-21825.47;;;25.31;27.52
7337;BME280;54510;42.016;23.098;2023-03-25T11:56:55;-21830.50;;;25.49;27.56
7337;BME280;54510;42.016;23.098;2023-03-25T11:59:25;-21836.09;;;25.70;28.08
7337;BME280;54510;42.016;23.098;2023-03-25T12:02:01;-21834.31;;;25.64;27.12
7337;BME280;54510;42.016;23.098;2023-03-25T12:04:27;-21833.78;;;25.62;27.28
7337;BME280;54510;42.016;23.098;2023-03-25T12:09:18;-21842.47;;;25.94;26.32
7337;BME280;54510;42.016;23.098;2023-03-25T12:11:51;-21831.06;;;25.51;26.52
7337;BME280;54510;42.016;23.098;2023-03-25T12:24:31;-21847.78;;;26.14;26.43
7337;BME280;54510;42.016;23.098;2023-03-25T12:29:51;-21841.66;;;25.91;27.64
7337;BME280;54510;42.016;23.098;2023-03-25T12:37:29;-21834.03;;;25.63;27.09
7337;BME280;54510;42.016;23.098;2023-03-25T12:42:26;-21831.47;;;25.53;27.21
7337;BME280;54510;42.016;23.098;2023-03-25T12:47:41;-21824.53;;;25.27;27.17
7337;BME280;54510;42.016;23.098;2023-03-25T12:56:25;-21851.44;;;26.27;26.66
7337;BME280;54510;42.016;23.098;2023-03-25T13:06:31;-21845.59;;;26.06;26.69
7337;BME280;54510;42.016;23.098;2023-03-25T13:09:02;-21837.19;;;25.74;26.99
7337;BME280;54510;42.016;23.098;2023-03-25T13:11:44;-21836.38;;;25.71;27.26
7337;BME280;54510;42.016;23.098;2023-03-25T13:14:14;-21841.66;;;25.91;26.83
7337;BME280;54510;42.016;23.098;2023-03-25T13:16:41;-21843.03;;;25.96;26.90
7337;BME280;54510;42.016;23.098;2023-03-25T13:19:18;-21822.63;;;25.20;27.66
7337;BME280;54510;42.016;23.098;2023-03-25T13:21:49;-21818.81;;;25.06;28.04
7337;BME280;54510;42.016;23.098;2023-03-25T13:24:20;-21828.06;;;25.40;27.95
7337;BME280;54510;42.016;23.098;2023-03-25T13:26:47;-21832.41;;;25.56;28.31
7337;BME280;54510;42.016;23.098;2023-03-25T13:31:46;-21820.72;;;25.13;29.16
7337;BME280;54510;42.016;23.098;2023-03-25T13:36:41;-21807.38;;;24.63;31.08
7337;BME280;54510;42.016;23.098;2023-03-25T13:39:16;-21809.00;;;24.69;30.66
7337;BME280;54510;42.016;23.098;2023-03-25T13:41:49;-21801.91;;;24.43;31.58
7337;BME280;54510;42.016;23.098;2023-03-25T13:44:20;-21803.00;;;24.47;31.47
7337;BME280;54510;42.016;23.098;2023-03-25T13:46:48;-21797.69;;;24.27;30.35
7337;BME280;54510;42.016;23.098;2023-03-25T13:51:40;-21794.41;;;24.15;31.23
7337;BME280;54510;42.016;23.098;2023-03-25T13:56:33;-21744.97;;;22.32;37.85
7337;BME280;54510;42.016;23.098;2023-03-25T14:04:45;-21726.25;;;21.62;39.87
7337;BME280;54510;42.016;23.098;2023-03-25T14:12:36;-21718.03;;;21.32;42.32
7337;BME280;54510;42.016;23.098;2023-03-25T14:17:35;-21713.09;;;21.14;44.12
7337;BME280;54510;42.016;23.098;2023-03-25T14:20:00;-21703.78;;;20.79;45.55
7337;BME280;54510;42.016;23.098;2023-03-25T14:22:30;-21696.25;;;20.52;46.70
7337;BME280;54510;42.016;23.098;2023-03-25T14:24:56;-21694.47;;;20.45;49.75
7337;BME280;54510;42.016;23.098;2023-03-25T14:27:24;-21680.47;;;19.93;52.16
7337;BME280;54510;42.016;23.098;2023-03-25T14:34:48;-21683.09;;;20.03;51.05
7337;BME280;54510;42.016;23.098;2023-03-25T14:39:45;-21671.56;;;19.60;56.05
7337;BME280;54510;42.016;23.098;2023-03-25T14:42:22;-21674.72;;;19.72;51.58
7337;BME280;54510;42.016;23.098;2023-03-25T14:44:48;-21678.16;;;19.85;48.76
7337;BME280;54510;42.016;23.098;2023-03-25T14:55:04;-21686.25;;;20.15;51.22
7337;BME280;54510;42.016;23.098;2023-03-25T14:57:36;-21674.03;;;19.69;54.49
7337;BME280;54510;42.016;23.098;2023-03-25T15:00:04;-21673.50;;;19.67;53.40